createdAt,value
2022-07-29T01:08:06.380Z,99953.66
2022-07-29T01:08:37.738Z,99953.66
2022-07-29T01:09:09.129Z,99951.97
2022-07-29T01:09:46.182Z,99952.84
2022-07-29T01:10:18.680Z,99951.81
2022-07-29T01:10:50.023Z,99956.34
2022-07-29T01:11:21.347Z,99954.50
2022-07-29T01:11:52.715Z,99953.50
2022-07-29T01:12:24.766Z,99952.69
2022-07-29T01:12:58.759Z,99949.00
2022-07-29T01:13:30.415Z,99945.47
2022-07-29T01:14:01.759Z,99955.38
2022-07-29T01:14:33.203Z,99954.50
2022-07-29T01:15:05.373Z,99956.34
2022-07-29T01:15:49.286Z,99951.97
2022-07-29T01:16:22.341Z,99944.66
2022-07-29T01:16:56.061Z,99948.31
2022-07-29T01:17:29.303Z,99945.47
2022-07-29T01:18:02.586Z,99941.81
2022-07-29T01:18:35.563Z,99949.16
2022-07-29T01:19:33.106Z,99951.66
2022-07-29T01:20:18.928Z,99941.66
2022-07-29T01:21:00.162Z,99944.34
2022-07-29T01:21:45.791Z,99942.81
2022-07-29T01:22:29.399Z,99943.63
2022-07-29T01:23:09.520Z,99940.13
2022-07-29T01:23:59.412Z,99939.28
2022-07-29T01:24:49.364Z,99933.09
2022-07-29T01:25:25.590Z,99941.13
2022-07-29T01:26:06.020Z,99933.09
2022-07-29T01:26:37.303Z,99932.09
2022-07-29T01:27:18.163Z,99937.44
2022-07-29T01:27:58.800Z,99940.13
2022-07-29T01:28:45.767Z,99934.78
2022-07-29T01:29:23.049Z,99936.78
2022-07-29T01:29:56.851Z,99936.78
2022-07-29T01:30:29.654Z,99930.56
2022-07-29T01:31:02.582Z,99942.13
2022-07-29T01:31:54.574Z,99942.13
2022-07-29T01:32:32.520Z,99937.44
2022-07-29T01:33:04.322Z,99936.63
2022-07-29T01:33:37.787Z,99933.94
2022-07-29T01:34:09.573Z,99933.94
2022-07-29T01:35:00.941Z,99930.25
2022-07-29T01:35:37.325Z,99921.53
2022-07-29T01:36:10.913Z,99927.72
2022-07-29T01:36:46.595Z,99935.59
2022-07-29T01:37:21.101Z,99930.25
2022-07-29T01:37:58.166Z,99924.06
2022-07-29T01:38:29.516Z,99923.22
2022-07-29T01:39:11.048Z,99925.06
2022-07-29T01:39:42.337Z,99924.22
2022-07-29T01:40:34.382Z,99923.22
2022-07-29T01:41:13.497Z,99924.88
2022-07-29T01:41:49.366Z,99923.22
2022-07-29T01:42:21.580Z,99930.25
2022-07-29T01:42:53.473Z,99924.88
2022-07-29T01:43:27.147Z,99929.56
2022-07-29T01:43:59.852Z,99929.41
2022-07-29T01:44:35.237Z,99924.22
2022-07-29T01:45:07.777Z,99925.22
2022-07-29T01:45:40.032Z,99923.56
2022-07-29T01:46:12.758Z,99926.06
2022-07-29T01:46:45.492Z,99921.69
2022-07-29T01:47:18.561Z,99923.56
2022-07-29T01:47:52.787Z,99923.38
2022-07-29T01:48:25.131Z,99919.84
2022-07-29T01:48:58.651Z,99918.19
2022-07-29T01:49:30.853Z,99918.19
2022-07-29T01:50:02.172Z,99927.22
2022-07-29T01:50:37.014Z,99914.50
2022-07-29T01:51:08.356Z,99918.19
2022-07-29T01:51:44.875Z,99912.84
2022-07-29T01:52:36.441Z,99912.69
2022-07-29T01:53:08.834Z,99913.50
2022-07-29T01:53:43.238Z,99913.50
2022-07-29T01:54:19.713Z,99909.16
2022-07-29T01:54:55.954Z,99908.47
2022-07-29T01:55:30.740Z,99911.16
2022-07-29T01:56:02.067Z,99910.16
2022-07-29T01:56:33.496Z,99915.53
2022-07-29T01:57:04.817Z,99916.19
2022-07-29T01:57:36.633Z,99921.53
2022-07-29T01:58:07.967Z,99916.84
2022-07-29T01:58:39.821Z,99914.88
2022-07-29T01:59:11.138Z,99915.56
2022-07-29T01:59:42.583Z,99914.56
2022-07-29T02:00:14.144Z,99910.88
2022-07-29T02:00:45.518Z,99912.72
2022-07-29T02:01:16.847Z,99913.88
2022-07-29T02:01:48.291Z,99912.03
2022-07-29T02:02:19.697Z,99911.34
2022-07-29T02:02:51.120Z,99907.84
2022-07-29T02:03:22.452Z,99905.31
2022-07-29T02:03:55.150Z,99907.16
2022-07-29T02:04:29.861Z,99907.16
2022-07-29T02:05:01.668Z,99905.47
2022-07-29T02:05:33.060Z,99903.78
2022-07-29T02:06:04.518Z,99912.69
2022-07-29T02:06:35.866Z,99908.16
2022-07-29T02:07:07.845Z,99917.88
2022-07-29T02:07:39.148Z,99903.78
2022-07-29T02:08:10.504Z,99915.34
2022-07-29T02:08:41.847Z,99911.81
2022-07-29T02:09:13.239Z,99913.50
2022-07-29T02:09:44.690Z,99918.03
2022-07-29T02:10:16.109Z,99914.50
2022-07-29T02:10:48.685Z,99921.53
2022-07-29T02:11:20.082Z,99912.84
2022-07-29T02:11:52.991Z,99914.50
2022-07-29T02:12:24.399Z,99919.84
2022-07-29T02:12:55.811Z,99919.84
2022-07-29T02:13:27.146Z,99914.50
2022-07-29T02:13:58.524Z,99914.50
2022-07-29T02:14:31.378Z,99916.19
2022-07-29T02:15:03.431Z,99911.00
2022-07-29T02:15:34.766Z,99911.16
2022-07-29T02:16:06.810Z,99907.47
2022-07-29T02:16:38.286Z,99906.47
2022-07-29T02:17:09.681Z,99912.84
2022-07-29T02:17:45.051Z,99909.16
2022-07-29T02:18:17.489Z,99908.31
2022-07-29T02:18:48.904Z,99907.47
2022-07-29T02:19:20.630Z,99906.47
2022-07-29T02:19:52.632Z,99904.81
2022-07-29T02:20:24.389Z,99906.47
2022-07-29T02:20:55.852Z,99908.16
2022-07-29T02:21:27.311Z,99910.00
2022-07-29T02:21:58.718Z,99909.16
2022-07-29T02:22:30.325Z,99902.97
2022-07-29T02:23:01.715Z,99903.78
2022-07-29T02:23:50.538Z,99906.31
2022-07-29T02:24:23.453Z,99904.66
2022-07-29T02:24:54.795Z,99902.97
2022-07-29T02:25:26.117Z,99905.63
2022-07-29T02:26:09.068Z,99903.94
2022-07-29T02:26:40.648Z,99903.13
2022-07-29T02:27:11.990Z,99900.44
2022-07-29T02:27:43.349Z,99897.59
2022-07-29T02:28:14.730Z,99900.44
2022-07-29T02:28:46.064Z,99895.09
2022-07-29T02:29:17.398Z,99895.09
2022-07-29T02:29:48.807Z,99896.78
2022-07-29T02:30:20.568Z,99902.13
2022-07-29T02:30:52.347Z,99894.94
2022-07-29T02:31:24.299Z,99891.41
2022-07-29T02:31:55.681Z,99896.78
2022-07-29T02:32:27.010Z,99892.41
2022-07-29T02:32:58.781Z,99890.56
2022-07-29T02:33:30.579Z,99894.09
2022-07-29T02:34:02.829Z,99893.06
2022-07-29T02:34:34.308Z,99893.94
2022-07-29T02:35:05.867Z,99890.41
2022-07-29T02:35:37.294Z,99896.47
2022-07-29T02:36:08.619Z,99889.41
2022-07-29T02:36:39.933Z,99892.91
2022-07-29T02:37:11.341Z,99894.78
2022-07-29T02:37:43.061Z,99894.94
2022-07-29T02:38:15.524Z,99892.41
2022-07-29T02:38:46.896Z,99889.72
2022-07-29T02:39:18.253Z,99893.06
2022-07-29T02:39:49.553Z,99887.72
2022-07-29T02:40:20.871Z,99894.94
2022-07-29T02:40:52.177Z,99895.91
2022-07-29T02:41:42.387Z,99888.91
2022-07-29T02:42:14.261Z,99893.25
2022-07-29T02:42:45.612Z,99894.25
2022-07-29T02:43:16.936Z,99894.25
2022-07-29T02:43:48.469Z,99891.56
2022-07-29T02:44:20.616Z,99893.25
2022-07-29T02:44:52.182Z,99894.25
2022-07-29T02:45:23.511Z,99894.25
2022-07-29T02:45:54.917Z,99899.44
2022-07-29T02:46:31.814Z,99897.59
2022-07-29T02:47:05.217Z,99896.78
2022-07-29T02:47:41.592Z,99897.59
2022-07-29T02:48:14.323Z,99901.28
2022-07-29T02:48:49.943Z,99900.44
2022-07-29T02:49:25.581Z,99897.75
2022-07-29T02:49:57.020Z,99898.78
2022-07-29T02:50:30.863Z,99901.47
2022-07-29T02:51:09.183Z,99898.78
2022-07-29T02:51:45.174Z,99892.56
2022-07-29T02:52:22.952Z,99899.78
2022-07-29T02:52:56.127Z,99896.25
2022-07-29T02:53:28.589Z,99890.91
2022-07-29T02:53:59.915Z,99890.03
2022-07-29T02:54:45.494Z,99898.78
2022-07-29T02:55:26.434Z,99895.41
2022-07-29T02:55:58.377Z,99901.63
2022-07-29T02:56:29.693Z,99897.91
2022-07-29T02:57:01.739Z,99894.41
2022-07-29T02:57:34.604Z,99897.09
2022-07-29T02:58:08.915Z,99893.59
2022-07-29T02:58:47.921Z,99893.59
2022-07-29T02:59:19.262Z,99894.41
2022-07-29T02:59:51.330Z,99895.41
2022-07-29T03:00:23.609Z,99894.41
2022-07-29T03:00:56.293Z,99895.41
2022-07-29T03:01:28.805Z,99888.91
2022-07-29T03:02:00.293Z,99892.56
2022-07-29T03:02:33.061Z,99888.06
2022-07-29T03:03:04.933Z,99895.25
2022-07-29T03:03:37.307Z,99890.91
2022-07-29T03:04:08.678Z,99887.38
2022-07-29T03:04:40.794Z,99890.03
2022-07-29T03:05:13.897Z,99891.06
2022-07-29T03:05:45.510Z,99890.03
2022-07-29T03:06:28.843Z,99889.06
2022-07-29T03:07:08.619Z,99889.22
2022-07-29T03:07:39.957Z,99887.38
2022-07-29T03:08:11.710Z,99887.38
2022-07-29T03:08:43.091Z,99890.91
2022-07-29T03:09:14.401Z,99887.38
2022-07-29T03:09:45.734Z,99883.03
2022-07-29T03:10:17.084Z,99882.88
2022-07-29T03:10:48.423Z,99883.03
2022-07-29T03:11:19.747Z,99885.56
2022-07-29T03:12:11.121Z,99886.38
2022-07-29T03:12:42.443Z,99882.88
2022-07-29T03:13:13.818Z,99881.84
2022-07-29T03:13:45.119Z,99883.53
2022-07-29T03:14:16.716Z,99878.19
2022-07-29T03:14:48.265Z,99880.03
2022-07-29T03:15:19.720Z,99885.41
2022-07-29T03:15:51.110Z,99875.69
2022-07-29T03:16:22.588Z,99882.00
2022-07-29T03:16:54.187Z,99883.72
2022-07-29T03:17:25.579Z,99887.22
2022-07-29T03:17:56.923Z,99885.56
2022-07-29T03:18:28.281Z,99879.34
2022-07-29T03:18:59.662Z,99878.34
2022-07-29T03:19:30.985Z,99881.84
2022-07-29T03:20:02.316Z,99881.03
2022-07-29T03:20:33.658Z,99878.50
2022-07-29T03:21:05.014Z,99882.19
2022-07-29T03:21:36.385Z,99889.38
2022-07-29T03:22:07.691Z,99887.53
2022-07-29T03:22:39.975Z,99890.03
2022-07-29T03:23:11.319Z,99884.84
2022-07-29T03:23:45.739Z,99890.03
2022-07-29T03:24:28.465Z,99882.19
2022-07-29T03:25:08.016Z,99887.38
2022-07-29T03:25:39.352Z,99884.69
2022-07-29T03:26:10.672Z,99882.00
2022-07-29T03:26:41.958Z,99885.41
2022-07-29T03:27:13.302Z,99888.06
2022-07-29T03:27:44.709Z,99887.22
2022-07-29T03:28:16.066Z,99880.19
2022-07-29T03:28:47.598Z,99881.03
2022-07-29T03:29:19.937Z,99877.53
2022-07-29T03:29:51.427Z,99880.19
2022-07-29T03:30:22.757Z,99877.69
2022-07-29T03:30:55.654Z,99877.69
2022-07-29T03:31:27.266Z,99881.03
2022-07-29T03:31:59.039Z,99880.19
2022-07-29T03:32:30.655Z,99875.16
2022-07-29T03:33:02.330Z,99882.19
2022-07-29T03:33:33.705Z,99879.66
2022-07-29T03:34:05.054Z,99881.34
2022-07-29T03:34:36.962Z,99876.97
2022-07-29T03:35:08.389Z,99872.66
2022-07-29T03:35:39.822Z,99871.63
2022-07-29T03:36:11.165Z,99879.66
2022-07-29T03:36:42.525Z,99875.16
2022-07-29T03:37:14.617Z,99877.69
2022-07-29T03:37:45.969Z,99876.66
2022-07-29T03:38:17.308Z,99876.81
2022-07-29T03:38:49.290Z,99870.63
2022-07-29T03:39:21.732Z,99869.66
2022-07-29T03:39:53.482Z,99869.66
2022-07-29T03:40:34.868Z,99866.97
2022-07-29T03:41:06.923Z,99868.63
2022-07-29T03:41:38.239Z,99866.97
2022-07-29T03:42:10.888Z,99867.81
2022-07-29T03:42:42.238Z,99866.97
2022-07-29T03:43:13.553Z,99867.13
2022-07-29T03:43:49.642Z,99870.63
2022-07-29T03:44:21.310Z,99866.97
2022-07-29T03:44:52.653Z,99865.13
2022-07-29T03:45:24.037Z,99866.97
2022-07-29T03:45:55.442Z,99866.97
2022-07-29T03:46:26.912Z,99866.97
2022-07-29T03:46:58.593Z,99868.63
2022-07-29T03:47:50.348Z,99866.66
2022-07-29T03:48:21.770Z,99867.81
2022-07-29T03:48:53.802Z,99864.28
2022-07-29T03:49:25.260Z,99852.72
2022-07-29T03:50:03.481Z,99859.63
2022-07-29T03:50:34.950Z,99863.28
2022-07-29T03:51:06.461Z,99853.59
2022-07-29T03:51:38.698Z,99852.88
2022-07-29T03:52:10.047Z,99856.41
2022-07-29T03:52:41.413Z,99852.72
2022-07-29T03:53:16.734Z,99854.56
2022-07-29T03:53:48.078Z,99848.41
2022-07-29T03:54:19.736Z,99852.88
2022-07-29T03:54:51.270Z,99851.06
2022-07-29T03:55:22.631Z,99847.53
2022-07-29T03:55:55.013Z,99851.22
2022-07-29T03:56:26.325Z,99846.03
2022-07-29T03:56:57.672Z,99845.88
2022-07-29T03:57:28.964Z,99851.22
2022-07-29T03:58:00.341Z,99849.53
2022-07-29T03:58:31.853Z,99854.56
2022-07-29T03:59:03.485Z,99854.56
2022-07-29T03:59:34.855Z,99852.72
2022-07-29T04:00:06.435Z,99850.06
2022-07-29T04:00:37.757Z,99854.56
2022-07-29T04:01:09.091Z,99856.25
2022-07-29T04:01:40.464Z,99856.25
2022-07-29T04:02:12.008Z,99851.75
2022-07-29T04:02:44.124Z,99856.25
2022-07-29T04:03:15.714Z,99851.91
2022-07-29T04:03:47.353Z,99853.59
2022-07-29T04:04:19.218Z,99861.63
2022-07-29T04:04:50.957Z,99850.91
2022-07-29T04:05:22.273Z,99851.91
2022-07-29T04:06:00.338Z,99862.59
2022-07-29T04:06:43.867Z,99858.25
2022-07-29T04:07:15.380Z,99849.22
2022-07-29T04:07:47.021Z,99856.41
2022-07-29T04:08:18.384Z,99860.91
2022-07-29T04:08:49.726Z,99861.78
2022-07-29T04:09:21.070Z,99866.97
2022-07-29T04:09:52.423Z,99865.28
2022-07-29T04:10:30.350Z,99867.97
2022-07-29T04:11:03.476Z,99867.97
2022-07-29T04:11:34.849Z,99871.63
2022-07-29T04:12:26.178Z,99869.81
2022-07-29T04:12:57.636Z,99864.63
2022-07-29T04:13:28.991Z,99852.88
2022-07-29T04:14:00.288Z,99858.25
2022-07-29T04:14:32.735Z,99859.94
2022-07-29T04:15:04.533Z,99868.78
2022-07-29T04:15:35.909Z,99857.25
2022-07-29T04:16:07.361Z,99861.78
2022-07-29T04:16:38.777Z,99859.94
2022-07-29T04:17:10.117Z,99866.97
2022-07-29T04:17:41.473Z,99868.78
2022-07-29T04:18:12.816Z,99865.28
2022-07-29T04:18:44.154Z,99866.13
2022-07-29T04:19:15.535Z,99866.13
2022-07-29T04:19:46.874Z,99868.94
2022-07-29T04:20:18.205Z,99869.81
2022-07-29T04:20:49.571Z,99868.94
2022-07-29T04:21:20.901Z,99868.94
2022-07-29T04:21:52.243Z,99864.63
2022-07-29T04:22:23.573Z,99863.59
2022-07-29T04:22:56.448Z,99861.94
2022-07-29T04:23:28.409Z,99855.56
2022-07-29T04:24:00.022Z,99863.59
2022-07-29T04:24:31.365Z,99862.94
2022-07-29T04:25:04.199Z,99861.94
2022-07-29T04:25:45.034Z,99868.94
2022-07-29T04:26:17.052Z,99867.97
2022-07-29T04:26:48.524Z,99870.63
2022-07-29T04:27:19.873Z,99864.44
2022-07-29T04:27:52.450Z,99871.47
2022-07-29T04:28:23.827Z,99870.63
2022-07-29T04:28:55.174Z,99869.81
2022-07-29T04:29:26.542Z,99867.13
2022-07-29T04:29:57.864Z,99873.97
2022-07-29T04:30:29.607Z,99872.31
2022-07-29T04:31:01.050Z,99868.63
2022-07-29T04:31:32.713Z,99868.63
2022-07-29T04:32:04.241Z,99862.28
2022-07-29T04:32:35.662Z,99874.69
2022-07-29T04:33:07.190Z,99877.38
2022-07-29T04:33:38.527Z,99878.19
2022-07-29T04:34:10.069Z,99873.00
2022-07-29T04:34:41.416Z,99878.34
2022-07-29T04:35:12.774Z,99866.66
2022-07-29T04:35:50.398Z,99870.31
2022-07-29T04:36:29.463Z,99870.31
2022-07-29T04:37:01.163Z,99869.66
2022-07-29T04:37:32.478Z,99872.31
2022-07-29T04:38:04.101Z,99873.31
2022-07-29T04:38:35.504Z,99872.31
2022-07-29T04:39:06.847Z,99873.97
2022-07-29T04:39:38.188Z,99875.84
2022-07-29T04:40:09.747Z,99878.34
2022-07-29T04:40:41.084Z,99876.00
2022-07-29T04:41:12.735Z,99879.66
2022-07-29T04:41:45.326Z,99881.34
2022-07-29T04:42:17.772Z,99876.00
2022-07-29T04:42:56.574Z,99876.00
2022-07-29T04:43:36.651Z,99875.16
2022-07-29T04:44:08.740Z,99876.97
2022-07-29T04:44:42.976Z,99879.66
2022-07-29T04:45:15.036Z,99880.50
2022-07-29T04:45:47.529Z,99883.03
2022-07-29T04:46:18.970Z,99872.31
2022-07-29T04:46:50.429Z,99881.34
2022-07-29T04:47:21.852Z,99882.34
2022-07-29T04:47:53.173Z,99872.66
2022-07-29T04:48:28.638Z,99881.66
2022-07-29T04:49:00.605Z,99877.84
2022-07-29T04:49:32.024Z,99879.66
2022-07-29T04:50:03.659Z,99883.19
2022-07-29T04:50:34.995Z,99885.88
2022-07-29T04:51:06.337Z,99891.22
2022-07-29T04:51:37.743Z,99890.38
2022-07-29T04:52:09.088Z,99893.03
2022-07-29T04:52:40.418Z,99895.88
2022-07-29T04:53:11.693Z,99896.91
2022-07-29T04:53:43.282Z,99890.53
2022-07-29T04:54:14.845Z,99907.13
2022-07-29T04:54:46.428Z,99908.13
2022-07-29T04:55:17.754Z,99918.00
2022-07-29T04:55:49.145Z,99912.63
2022-07-29T04:56:20.507Z,99920.84
2022-07-29T04:56:51.877Z,99912.63
2022-07-29T04:57:23.541Z,99918.00
2022-07-29T04:57:54.862Z,99915.47
2022-07-29T04:58:26.224Z,99918.31
2022-07-29T04:58:57.549Z,99917.63
2022-07-29T04:59:28.919Z,99920.13
2022-07-29T05:00:00.254Z,99920.31
2022-07-29T05:00:33.559Z,99916.63
2022-07-29T05:01:05.196Z,99919.44
2022-07-29T05:01:36.616Z,99921.16
2022-07-29T05:02:07.959Z,99921.97
2022-07-29T05:02:39.340Z,99922.81
2022-07-29T05:03:10.802Z,99926.34
2022-07-29T05:03:42.318Z,99936.03
2022-07-29T05:04:14.094Z,99929.84
2022-07-29T05:04:45.633Z,99931.53
2022-07-29T05:05:16.973Z,99931.53
2022-07-29T05:05:48.284Z,99931.53
2022-07-29T05:06:19.641Z,99933.50
2022-07-29T05:06:51.001Z,99935.19
2022-07-29T05:07:22.306Z,99933.50
2022-07-29T05:07:53.640Z,99931.84
2022-07-29T05:08:24.931Z,99934.53
2022-07-29T05:08:56.264Z,99935.34
2022-07-29T05:09:27.741Z,99937.22
2022-07-29T05:09:59.083Z,99941.53
2022-07-29T05:10:30.452Z,99941.38
2022-07-29T05:11:12.224Z,99937.06
2022-07-29T05:11:44.365Z,99940.56
2022-07-29T05:12:15.679Z,99943.22
2022-07-29T05:12:47.005Z,99935.19
2022-07-29T05:13:18.336Z,99929.84
2022-07-29T05:13:49.669Z,99929.03
2022-07-29T05:14:21.133Z,99929.19
2022-07-29T05:14:52.783Z,99929.34
2022-07-29T05:15:24.296Z,99927.63
2022-07-29T05:15:55.731Z,99928.50
2022-07-29T05:16:27.188Z,99925.81
2022-07-29T05:16:58.514Z,99929.50
2022-07-29T05:17:30.115Z,99922.28
2022-07-29T05:18:01.663Z,99923.97
2022-07-29T05:18:33.001Z,99931.84
2022-07-29T05:19:04.339Z,99927.31
2022-07-29T05:19:39.838Z,99927.16
2022-07-29T05:20:11.423Z,99918.47
2022-07-29T05:20:42.764Z,99923.81
2022-07-29T05:21:14.089Z,99925.47
2022-07-29T05:21:45.563Z,99920.13
2022-07-29T05:22:16.894Z,99924.50
2022-07-29T05:22:48.220Z,99927.31
2022-07-29T05:23:19.523Z,99926.50
2022-07-29T05:23:50.867Z,99926.50
2022-07-29T05:24:22.261Z,99928.50
2022-07-29T05:24:53.830Z,99933.00
2022-07-29T05:25:42.915Z,99925.94
2022-07-29T05:26:15.824Z,99940.88
2022-07-29T05:26:47.208Z,99944.56
2022-07-29T05:27:18.644Z,99941.53
2022-07-29T05:27:51.002Z,99948.75
2022-07-29T05:28:22.405Z,99945.22
2022-07-29T05:28:53.790Z,99946.06
2022-07-29T05:29:42.688Z,99949.91
2022-07-29T05:30:16.520Z,99951.56
2022-07-29T05:30:48.008Z,99944.41
2022-07-29T05:31:19.534Z,99951.56
2022-07-29T05:31:50.998Z,99952.59
2022-07-29T05:32:22.321Z,99944.56
2022-07-29T05:32:53.630Z,99947.25
2022-07-29T05:33:36.269Z,99958.63
2022-07-29T05:34:08.310Z,99961.13
2022-07-29T05:34:50.256Z,99951.25
2022-07-29T05:35:23.005Z,99956.63
2022-07-29T05:35:58.505Z,99963.97
2022-07-29T05:36:32.023Z,99957.09
2022-07-29T05:37:03.381Z,99959.44
2022-07-29T05:37:34.729Z,99957.59
2022-07-29T05:38:06.098Z,99959.44
2022-07-29T05:38:38.804Z,99960.28
2022-07-29T05:39:10.221Z,99954.94
2022-07-29T05:39:49.289Z,99949.56
2022-07-29T05:40:22.317Z,99956.09
2022-07-29T05:40:53.658Z,99961.59
2022-07-29T05:41:24.994Z,99954.41
2022-07-29T05:41:56.325Z,99957.09
2022-07-29T05:42:27.691Z,99949.91
2022-07-29T05:42:59.027Z,99959.59
2022-07-29T05:43:30.354Z,99956.09
2022-07-29T05:44:01.682Z,99959.44
2022-07-29T05:44:36.689Z,99960.47
2022-07-29T05:45:08.234Z,99963.97
2022-07-29T05:45:49.980Z,99967.63
2022-07-29T05:46:21.978Z,99973.00
2022-07-29T05:46:53.393Z,99967.63
2022-07-29T05:47:24.874Z,99973.00
2022-07-29T05:47:56.317Z,99972.00
2022-07-29T05:48:27.659Z,99974.69
2022-07-29T05:48:59.084Z,99964.81
2022-07-29T05:49:30.542Z,99967.47
2022-07-29T05:50:01.962Z,99965.63
2022-07-29T05:50:33.294Z,99962.28
2022-07-29T05:51:04.642Z,99963.97
2022-07-29T05:51:36.145Z,99955.13
2022-07-29T05:52:07.507Z,99966.81
2022-07-29T05:52:38.828Z,99965.13
2022-07-29T05:53:19.651Z,99972.69
2022-07-29T05:53:51.831Z,99978.03
2022-07-29T05:54:23.238Z,99990.44
2022-07-29T05:54:54.594Z,99989.72
2022-07-29T05:55:25.975Z,99990.75
2022-07-29T05:55:57.333Z,99990.91
2022-07-29T05:56:28.678Z,99989.91
2022-07-29T05:57:00.009Z,99989.22
2022-07-29T05:57:31.336Z,99990.75
2022-07-29T05:58:02.673Z,99987.41
2022-07-29T05:58:34.008Z,99989.22
2022-07-29T05:59:05.369Z,99984.84
2022-07-29T05:59:49.988Z,99981.31
2022-07-29T06:00:21.313Z,99988.38
2022-07-29T06:00:52.675Z,99980.34
2022-07-29T06:01:24.075Z,99975.66
2022-07-29T06:01:55.662Z,99983.53
2022-07-29T06:02:27.067Z,99986.44
2022-07-29T06:02:58.433Z,99989.25
2022-07-29T06:03:29.801Z,100000.13
2022-07-29T06:04:01.248Z,99994.78
2022-07-29T06:04:32.996Z,99989.72
2022-07-29T06:05:04.516Z,99997.59
2022-07-29T06:05:35.919Z,99990.75
2022-07-29T06:06:07.347Z,99991.72
2022-07-29T06:06:38.820Z,99995.41
2022-07-29T06:07:10.148Z,100001.59
2022-07-29T06:07:41.463Z,100001.44
2022-07-29T06:08:22.229Z,99996.25
2022-07-29T06:08:53.617Z,99998.09
2022-07-29T06:09:24.991Z,99998.09
2022-07-29T06:09:56.318Z,100004.28
2022-07-29T06:10:27.630Z,99999.44
2022-07-29T06:10:58.953Z,100002.28
2022-07-29T06:11:30.350Z,100001.44
2022-07-29T06:12:01.891Z,100004.13
2022-07-29T06:12:33.197Z,100006.81
2022-07-29T06:13:04.558Z,99999.75
2022-07-29T06:13:35.910Z,100003.44
2022-07-29T06:14:07.228Z,99994.69
2022-07-29T06:14:38.610Z,100003.44
2022-07-29T06:15:10.142Z,99999.75
2022-07-29T06:15:41.536Z,99999.75
2022-07-29T06:16:15.835Z,99995.41
2022-07-29T06:17:01.419Z,99994.56
2022-07-29T06:17:32.761Z,100005.28
2022-07-29T06:18:04.084Z,100002.44
2022-07-29T06:18:35.418Z,99999.75
2022-07-29T06:19:06.748Z,100006.81
2022-07-29T06:19:38.375Z,100009.47
2022-07-29T06:20:10.829Z,100003.28
2022-07-29T06:20:42.210Z,100005.13
2022-07-29T06:21:13.568Z,100013.31
2022-07-29T06:21:44.928Z,100012.16
2022-07-29T06:22:16.683Z,100005.13
2022-07-29T06:22:48.033Z,100009.47
2022-07-29T06:23:19.685Z,100006.81
2022-07-29T06:23:51.021Z,100009.47
2022-07-29T06:24:22.346Z,100005.78
2022-07-29T06:24:53.914Z,100006.66
2022-07-29T06:25:25.267Z,100005.78
2022-07-29T06:25:56.626Z,100006.97
2022-07-29T06:26:30.622Z,100000.78
2022-07-29T06:27:02.859Z,100010.47
2022-07-29T06:27:34.219Z,100003.44
2022-07-29T06:28:07.046Z,100006.81
2022-07-29T06:28:38.631Z,100001.44
2022-07-29T06:29:10.021Z,99999.44
2022-07-29T06:29:41.343Z,100003.13
2022-07-29T06:30:13.023Z,100006.81
2022-07-29T06:30:44.455Z,100008.66
2022-07-29T06:31:15.849Z,100007.78
2022-07-29T06:31:47.384Z,100002.44
2022-07-29T06:32:18.767Z,100012.31
2022-07-29T06:32:54.222Z,99997.75
2022-07-29T06:33:25.559Z,100010.16
2022-07-29T06:33:56.919Z,100005.47
2022-07-29T06:34:28.318Z,100001.44
2022-07-29T06:35:24.406Z,100004.13
2022-07-29T06:35:53.346Z,100004.13
2022-07-29T06:36:26.383Z,99999.75
2022-07-29T06:36:59.310Z,99996.25
2022-07-29T06:37:30.974Z,99994.56
2022-07-29T06:38:07.309Z,100002.59
2022-07-29T06:38:55.943Z,99998.09
2022-07-29T06:39:27.805Z,99999.75
2022-07-29T06:39:59.649Z,100003.44
2022-07-29T06:40:31.136Z,100003.44
2022-07-29T06:41:02.490Z,100001.75
2022-07-29T06:41:33.933Z,100002.44
2022-07-29T06:42:05.366Z,100001.59
2022-07-29T06:42:36.706Z,100003.28
2022-07-29T06:43:08.057Z,99997.09
2022-07-29T06:43:50.509Z,99999.44
2022-07-29T06:44:24.007Z,100004.50
2022-07-29T06:44:55.438Z,100002.81
2022-07-29T06:45:26.804Z,100001.28
2022-07-29T06:46:00.719Z,100001.28
2022-07-29T06:46:32.139Z,99998.63
2022-07-29T06:47:03.518Z,99996.09
2022-07-29T06:47:34.887Z,99998.63
2022-07-29T06:48:06.300Z,99999.59
2022-07-29T06:48:37.748Z,100001.97
2022-07-29T06:49:09.174Z,99998.66
2022-07-29T06:49:40.537Z,99998.00
2022-07-29T06:50:11.943Z,99998.16
2022-07-29T06:50:43.271Z,99999.97
2022-07-29T06:51:14.645Z,100001.81
2022-07-29T06:51:46.078Z,99997.44
2022-07-29T06:52:17.430Z,99994.63
2022-07-29T06:52:48.925Z,99994.78
2022-07-29T06:53:20.277Z,99995.78
2022-07-29T06:54:00.217Z,99997.44
2022-07-29T06:54:34.453Z,99994.78
2022-07-29T06:55:06.073Z,99992.81
2022-07-29T06:55:37.459Z,99992.94
2022-07-29T06:56:08.768Z,99999.81
2022-07-29T06:56:40.539Z,99990.13
2022-07-29T06:57:11.908Z,99993.63
2022-07-29T06:57:43.282Z,99995.47
2022-07-29T06:58:14.911Z,99999.13
2022-07-29T06:58:46.316Z,99992.09
2022-07-29T06:59:17.707Z,100004.34
2022-07-29T06:59:48.996Z,100000.13
2022-07-29T07:00:20.379Z,99999.13
2022-07-29T07:00:51.794Z,99998.31
2022-07-29T07:01:23.224Z,99999.13
2022-07-29T07:01:54.634Z,100004.50
2022-07-29T07:02:26.020Z,100000.97
2022-07-29T07:02:57.490Z,100001.81
2022-07-29T07:03:28.888Z,99997.44
2022-07-29T07:04:00.216Z,100000.13
2022-07-29T07:04:31.610Z,100000.13
2022-07-29T07:05:02.996Z,100001.13
2022-07-29T07:05:34.306Z,100000.13
2022-07-29T07:06:05.670Z,100002.81
2022-07-29T07:06:37.172Z,100002.81
2022-07-29T07:07:08.550Z,100000.81
2022-07-29T07:07:40.209Z,99997.59
2022-07-29T07:09:00.934Z,100001.13
2022-07-29T07:09:40.680Z,100002.13
2022-07-29T07:10:12.374Z,100010.84
2022-07-29T07:10:43.929Z,100005.47
2022-07-29T07:11:15.418Z,100009.84
2022-07-29T07:11:49.485Z,100000.97
2022-07-29T07:12:21.449Z,100001.66
2022-07-29T07:12:52.908Z,100010.38
2022-07-29T07:13:24.397Z,100001.34
2022-07-29T07:14:00.672Z,100003.19
2022-07-29T07:14:34.363Z,100004.69
2022-07-29T07:15:06.180Z,100000.53
2022-07-29T07:15:39.073Z,100004.19
2022-07-29T07:16:11.617Z,99998.16
2022-07-29T07:16:43.223Z,100001.34
2022-07-29T07:17:14.699Z,100002.84
2022-07-29T07:17:46.258Z,99998.50
2022-07-29T07:18:17.857Z,99999.50
2022-07-29T07:18:49.347Z,100004.19
2022-07-29T07:19:20.853Z,99995.31
2022-07-29T07:19:52.321Z,99998.81
2022-07-29T07:20:24.038Z,100001.50
2022-07-29T07:20:57.170Z,99990.94
2022-07-29T07:21:30.129Z,99998.16
2022-07-29T07:22:02.539Z,99997.13
2022-07-29T07:22:38.911Z,99995.16
2022-07-29T07:23:10.665Z,99988.94
2022-07-29T07:23:42.205Z,99996.00
2022-07-29T07:24:13.931Z,99994.16
2022-07-29T07:24:45.517Z,99994.16
2022-07-29T07:25:16.992Z,99992.47
2022-07-29T07:25:48.549Z,99990.63
2022-07-29T07:26:20.062Z,99996.50
2022-07-29T07:26:51.543Z,99993.16
2022-07-29T07:27:23.037Z,99993.31
2022-07-29T07:27:54.510Z,99993.84
2022-07-29T07:28:25.987Z,99990.47
2022-07-29T07:28:57.480Z,99993.16
2022-07-29T07:29:28.987Z,99993.84
2022-07-29T07:30:00.493Z,99996.19
2022-07-29T07:30:32.014Z,99993.88
2022-07-29T07:31:03.477Z,99995.56
2022-07-29T07:31:35.250Z,99990.22
2022-07-29T07:32:06.838Z,99994.56
2022-07-29T07:32:38.520Z,99993.56
2022-07-29T07:33:10.036Z,99995.88
2022-07-29T07:33:41.530Z,99995.22